Time;durP1;ratioP1;P1;durP2;ratioP2;P2;SDS_P1;SDS_P2;PMS_P1;PMS_P2;Temp;Humidity;BMP_temperature;BMP_pressure;BME280_temperature;BME280_humidity;BME280_pressure;Samples;Min_cycle;Max_cycle;Signal;HPM_P1;HPM_P2
2022/06/12 00:01:08;;;;;;;9.00;5.80;;;16.10;99.90;;;;;;5035786;28;20955;-84
2022/06/12 00:03:34;;;;;;;8.60;6.00;;;16.00;99.90;;;;;;5037420;28;20169;-84
2022/06/12 00:06:02;;;;;;;7.63;5.40;;;16.00;99.90;;;;;;5036700;28;20475;-84
2022/06/12 00:08:32;;;;;;;9.03;5.93;;;16.00;99.90;;;;;;5037420;28;21016;-81
2022/06/12 00:11:00;;;;;;;8.47;5.93;;;15.90;99.90;;;;;;5048972;28;20538;-81
2022/06/12 00:13:37;;;;;;;9.23;5.70;;;15.90;99.90;;;;;;5034592;28;20449;-81
2022/06/12 00:16:04;;;;;;;9.70;5.20;;;15.90;99.90;;;;;;5049334;28;20424;-81
2022/06/12 00:18:30;;;;;;;9.03;6.63;;;15.90;99.90;;;;;;5037305;28;20768;-81
2022/06/12 00:21:11;;;;;;;10.10;5.30;;;15.80;99.90;;;;;;5035638;28;20421;-81
2022/06/12 00:23:49;;;;;;;8.33;5.60;;;15.90;99.90;;;;;;5035051;28;20647;-81
2022/06/12 00:26:20;;;;;;;10.57;5.77;;;15.80;99.90;;;;;;5052123;28;20414;-81
2022/06/12 00:28:45;;;;;;;8.33;6.10;;;15.70;99.90;;;;;;5048110;28;20925;-81
2022/06/12 00:31:11;;;;;;;11.57;5.97;;;15.80;99.90;;;;;;5054020;28;20389;-81
2022/06/12 00:33:37;;;;;;;7.77;5.47;;;15.70;99.90;;;;;;5034445;28;20538;-81
2022/06/12 00:36:03;;;;;;;6.27;5.23;;;15.70;99.90;;;;;;5051909;28;20710;-81
2022/06/12 00:38:28;;;;;;;6.27;5.50;;;15.60;99.90;;;;;;5039909;28;20647;-81
2022/06/12 00:40:54;;;;;;;8.60;5.50;;;15.60;99.90;;;;;;5052802;28;20653;-80
2022/06/12 00:43:20;;;;;;;6.90;5.43;;;15.60;99.90;;;;;;5034380;28;20319;-81
2022/06/12 00:45:55;;;;;;;5.40;4.90;;;15.60;99.90;;;;;;5054116;28;20175;-80
2022/06/12 00:48:25;;;;;;;7.90;5.87;;;15.50;99.90;;;;;;5042439;28;20787;-81
2022/06/12 00:51:06;;;;;;;10.80;5.90;;;15.50;99.90;;;;;;5054840;28;20769;-80
2022/06/12 00:53:37;;;;;;;9.50;5.60;;;15.50;99.90;;;;;;5042641;28;20481;-81
2022/06/12 00:56:38;;;;;;;6.13;5.53;;;15.50;99.90;;;;;;5043247;28;20418;-81
2022/06/12 00:59:11;;;;;;;8.27;5.90;;;15.40;99.90;;;;;;5029594;28;20831;-81
2022/06/12 01:01:41;;;;;;;6.37;5.20;;;15.40;99.90;;;;;;5043300;28;20435;-81
2022/06/12 01:06:54;;;;;;;6.67;5.60;;;15.30;99.90;;;;;;5046346;28;20447;-81
2022/06/12 01:09:25;;;;;;;7.43;6.10;;;15.30;99.90;;;;;;5053569;28;20462;-83
2022/06/12 01:11:53;;;;;;;6.67;5.40;;;15.30;99.90;;;;;;5047682;28;20426;-83
2022/06/12 01:14:24;;;;;;;7.63;5.90;;;15.20;99.90;;;;;;5053353;28;20423;-83
2022/06/12 01:16:51;;;;;;;6.00;5.40;;;15.20;99.90;;;;;;5029913;28;20400;-83
2022/06/12 01:19:27;;;;;;;10.20;6.20;;;15.20;99.90;;;;;;5042816;28;20450;-83
2022/06/12 01:22:10;;;;;;;7.50;5.90;;;15.20;99.90;;;;;;5036362;28;20421;-83
2022/06/12 01:24:52;;;;;;;12.70;5.80;;;15.20;99.90;;;;;;5031467;28;20422;-83
2022/06/12 01:27:36;;;;;;;15.13;6.00;;;15.10;99.90;;;;;;5046038;28;20512;-83
2022/06/12 01:30:33;;;;;;;6.70;6.10;;;15.10;1.00;;;;;;5045194;28;20453;-83
2022/06/12 01:33:09;;;;;;;6.97;6.13;;;15.10;1.00;;;;;;5025662;28;20423;-83
2022/06/12 01:35:50;;;;;;;12.80;6.50;;;15.10;1.00;;;;;;5048553;28;20434;-83
2022/06/12 01:38:37;;;;;;;8.20;6.80;;;15.00;1.00;;;;;;5049201;28;20419;-83
2022/06/12 01:41:13;;;;;;;8.97;6.60;;;15.00;1.00;;;;;;5042844;28;20419;-83
2022/06/12 01:43:55;;;;;;;6.77;5.90;;;15.00;1.00;;;;;;5044241;28;20426;-83
2022/06/12 01:46:40;;;;;;;10.17;7.37;;;15.00;1.00;;;;;;5034493;28;20433;-83
2022/06/12 01:49:14;;;;;;;7.53;6.70;;;15.00;1.00;;;;;;5050423;28;20432;-83
2022/06/12 01:51:40;;;;;;;15.33;7.10;;;14.90;1.00;;;;;;5054219;28;20445;-83
2022/06/12 01:54:29;;;;;;;8.87;6.73;;;15.00;1.00;;;;;;5033768;28;20958;-83
2022/06/12 01:57:03;;;;;;;13.63;6.93;;;14.90;1.00;;;;;;5037044;28;20180;-83
2022/06/12 01:59:43;;;;;;;10.30;6.37;;;14.90;1.00;;;;;;5047048;28;20440;-83
2022/06/12 02:02:18;;;;;;;15.27;6.70;;;14.90;1.00;;;;;;5045215;28;20424;-83
2022/06/12 02:04:56;;;;;;;10.53;7.00;;;14.90;1.00;;;;;;5048004;28;20786;-83
2022/06/12 02:07:45;;;;;;;10.50;7.23;;;14.90;1.00;;;;;;5035090;28;20917;-83
2022/06/12 02:10:19;;;;;;;7.93;6.00;;;14.80;1.00;;;;;;5021262;28;20474;-83
2022/06/12 02:13:12;;;;;;;15.37;7.20;;;14.80;1.00;;;;;;5033942;28;20476;-83
2022/06/12 02:15:53;;;;;;;12.00;6.97;;;14.80;1.00;;;;;;5045939;28;20919;-83
2022/06/12 02:18:44;;;;;;;13.83;7.37;;;14.80;1.00;;;;;;5025913;28;20428;-83
2022/06/12 02:21:41;;;;;;;10.13;7.60;;;14.70;1.00;;;;;;5032907;28;20483;-83
2022/06/12 02:24:16;;;;;;;10.30;7.37;;;14.70;1.00;;;;;;5052722;28;20428;-81
2022/06/12 02:27:02;;;;;;;12.00;7.50;;;14.70;1.00;;;;;;5052421;28;20383;-81
2022/06/12 02:29:53;;;;;;;8.97;7.00;;;14.70;1.00;;;;;;5051132;28;20449;-81
2022/06/12 02:32:59;;;;;;;14.77;7.90;;;14.60;1.00;;;;;;5044800;28;20437;-81
2022/06/12 02:35:39;;;;;;;10.53;7.50;;;14.60;1.00;;;;;;5022128;28;20402;-81
2022/06/12 02:38:11;;;;;;;12.90;7.00;;;14.60;1.00;;;;;;5027079;28;20394;-82
2022/06/12 02:40:41;;;;;;;8.63;7.30;;;14.60;1.00;;;;;;5014610;28;20430;-81
2022/06/12 02:43:16;;;;;;;9.80;7.50;;;14.60;1.00;;;;;;5026654;28;20983;-81
2022/06/12 02:45:45;;;;;;;12.13;7.20;;;14.60;1.00;;;;;;5023800;28;20432;-81
2022/06/12 02:48:11;;;;;;;18.77;7.43;;;14.60;1.00;;;;;;5014526;28;20463;-81
2022/06/12 02:50:49;;;;;;;15.83;7.67;;;14.50;1.00;;;;;;5003595;28;21002;-81
2022/06/12 02:53:32;;;;;;;13.43;6.87;;;14.50;1.00;;;;;;4983147;28;20276;-81
2022/06/12 02:56:17;;;;;;;10.60;7.90;;;14.40;1.00;;;;;;5002310;28;20427;-81
2022/06/12 02:59:02;;;;;;;9.83;6.70;;;14.40;1.00;;;;;;5009550;28;20423;-81
2022/06/12 03:01:48;;;;;;;9.60;7.00;;;14.40;1.00;;;;;;5020722;28;20430;-81
2022/06/12 03:04:47;;;;;;;9.43;7.30;;;14.40;1.00;;;;;;5010987;28;20431;-81
2022/06/12 03:07:13;;;;;;;10.93;6.53;;;14.40;1.00;;;;;;4999319;28;20440;-81
2022/06/12 03:09:39;;;;;;;11.30;6.90;;;14.40;1.00;;;;;;5011006;28;20500;-83
2022/06/12 03:12:07;;;;;;;12.60;7.63;;;14.30;1.00;;;;;;5040313;28;20425;-83
2022/06/12 03:14:33;;;;;;;8.70;7.30;;;14.30;1.00;;;;;;5042501;28;20172;-83
2022/06/12 03:16:58;;;;;;;9.63;7.57;;;14.30;1.00;;;;;;5040429;28;20388;-83
2022/06/12 03:19:28;;;;;;;10.27;7.03;;;14.40;1.00;;;;;;5045865;28;20497;-83
2022/06/12 03:22:18;;;;;;;15.23;7.27;;;14.30;1.00;;;;;;5044512;28;20519;-83
2022/06/12 03:24:46;;;;;;;12.00;7.60;;;14.30;1.00;;;;;;5032789;28;20437;-83
2022/06/12 03:27:21;;;;;;;9.60;7.50;;;14.30;1.00;;;;;;5044055;28;20498;-82
2022/06/12 03:30:06;;;;;;;10.10;7.87;;;14.30;1.00;;;;;;5044818;28;20453;-82
2022/06/12 03:32:57;;;;;;;10.90;7.20;;;14.30;1.00;;;;;;5053210;28;20406;-82
2022/06/12 03:35:35;;;;;;;11.87;8.13;;;14.30;1.00;;;;;;5047634;28;20425;-83
2022/06/12 03:38:12;;;;;;;12.23;8.17;;;14.20;1.00;;;;;;5049359;28;20865;-83
2022/06/12 03:41:06;;;;;;;9.57;7.43;;;14.30;1.00;;;;;;5032138;28;20393;-83
2022/06/12 03:43:37;;;;;;;12.60;8.07;;;14.30;1.00;;;;;;5041835;28;20423;-83
2022/06/12 03:46:18;;;;;;;9.97;7.60;;;14.30;1.00;;;;;;5053004;28;20468;-82
2022/06/12 03:48:51;;;;;;;7.67;6.90;;;14.30;1.00;;;;;;5046164;28;20432;-83
2022/06/12 03:51:39;;;;;;;9.00;7.50;;;14.30;1.00;;;;;;5032961;28;20432;-83
2022/06/12 03:54:44;;;;;;;11.20;7.80;;;14.30;1.00;;;;;;5028969;28;20483;-82
2022/06/12 04:00:38;;;;;;;11.80;7.67;;;14.30;1.00;;;;;;5029136;28;20483;-81
2022/06/12 04:03:18;;;;;;;9.10;7.23;;;14.30;1.00;;;;;;4993314;28;20403;-81
2022/06/12 04:05:58;;;;;;;7.77;6.90;;;14.30;1.00;;;;;;5030231;28;20996;-82
2022/06/12 04:08:33;;;;;;;9.90;7.87;;;14.30;1.00;;;;;;5020121;28;21022;-81
2022/06/12 04:10:59;;;;;;;9.27;7.70;;;14.40;1.00;;;;;;5014204;28;20915;-83
2022/06/12 04:13:25;;;;;;;9.33;7.57;;;14.40;1.00;;;;;;5020712;28;20504;-82
2022/06/12 04:16:04;;;;;;;8.97;8.00;;;14.40;1.00;;;;;;5030628;28;20397;-83
2022/06/12 04:18:31;;;;;;;12.60;8.00;;;14.40;1.00;;;;;;5014309;28;20477;-83
2022/06/12 04:20:59;;;;;;;11.10;7.20;;;14.50;1.00;;;;;;5013530;28;20461;-83
2022/06/12 04:23:43;;;;;;;10.20;8.37;;;14.50;1.00;;;;;;5021233;28;20523;-83
2022/06/12 04:26:16;;;;;;;12.33;7.93;;;14.60;1.00;;;;;;5030106;28;20521;-83
2022/06/12 04:28:44;;;;;;;8.50;7.60;;;14.60;1.00;;;;;;5006750;28;20433;-83
2022/06/12 04:31:15;;;;;;;11.27;7.57;;;14.70;1.00;;;;;;5013609;28;20393;-83
2022/06/12 04:33:46;;;;;;;12.50;7.37;;;14.70;1.00;;;;;;5027738;28;20426;-83
2022/06/12 04:36:13;;;;;;;9.30;7.60;;;14.80;1.00;;;;;;5049046;28;20898;-83
2022/06/12 04:38:39;;;;;;;9.20;7.10;;;14.90;1.00;;;;;;5040316;28;20415;-83
2022/06/12 04:41:05;;;;;;;7.97;7.17;;;14.90;1.00;;;;;;5042683;28;20438;-82
2022/06/12 04:43:32;;;;;;;10.83;8.10;;;15.00;1.00;;;;;;5034866;28;20458;-82
2022/06/12 04:45:58;;;;;;;7.80;7.00;;;15.00;1.00;;;;;;5028514;28;20180;-81
2022/06/12 04:48:35;;;;;;;8.53;7.60;;;15.10;1.00;;;;;;5048702;28;20527;-81
2022/06/12 04:51:01;;;;;;;7.73;6.93;;;15.10;1.00;;;;;;5053415;28;20400;-81
2022/06/12 04:53:27;;;;;;;7.97;7.10;;;15.20;1.00;;;;;;5036735;28;20418;-81
2022/06/12 04:55:53;;;;;;;11.60;7.80;;;15.30;1.00;;;;;;5054348;28;20523;-81
2022/06/12 04:58:19;;;;;;;8.87;7.20;;;15.40;1.00;;;;;;5035881;28;20276;-81
2022/06/12 05:00:45;;;;;;;7.80;6.77;;;15.40;1.00;;;;;;5054420;28;20844;-81
2022/06/12 05:03:12;;;;;;;9.20;7.60;;;15.50;1.00;;;;;;5033667;28;20184;-81
2022/06/12 05:05:38;;;;;;;10.07;7.93;;;15.60;1.00;;;;;;5043501;28;20254;-81
2022/06/12 05:08:04;;;;;;;9.77;7.33;;;15.70;1.00;;;;;;5050152;28;20434;-81
2022/06/12 05:10:36;;;;;;;13.90;6.87;;;15.70;1.00;;;;;;5055636;28;20919;-83
2022/06/12 05:13:05;;;;;;;7.53;6.77;;;15.80;1.00;;;;;;5051460;28;20676;-83
2022/06/12 05:15:31;;;;;;;7.23;6.40;;;15.90;1.00;;;;;;5044671;28;20416;-83
2022/06/12 05:17:56;;;;;;;7.83;6.67;;;16.00;1.00;;;;;;5051396;28;20993;-83
2022/06/12 05:20:27;;;;;;;8.33;6.20;;;16.10;1.00;;;;;;5053658;28;20404;-83
2022/06/12 05:22:53;;;;;;;9.00;6.13;;;16.20;1.00;;;;;;5034195;28;20180;-83
2022/06/12 05:25:19;;;;;;;9.17;6.40;;;16.40;1.00;;;;;;5044154;28;20425;-83
2022/06/12 05:27:46;;;;;;;11.93;6.90;;;16.40;1.00;;;;;;5036007;28;20176;-83
2022/06/12 05:30:22;;;;;;;8.33;6.30;;;16.60;1.00;;;;;;5045014;28;20483;-83
2022/06/12 05:32:50;;;;;;;10.40;6.10;;;16.70;1.00;;;;;;5039804;28;20417;-83
2022/06/12 05:35:17;;;;;;;14.57;7.17;;;16.80;1.00;;;;;;5054453;28;20418;-83
2022/06/12 05:37:42;;;;;;;12.87;6.50;;;16.90;1.00;;;;;;5033612;28;20411;-83
2022/06/12 05:40:13;;;;;;;6.73;5.27;;;17.10;1.00;;;;;;5027015;28;20405;-82
2022/06/12 05:42:39;;;;;;;9.60;6.73;;;17.20;1.00;;;;;;5034147;28;20184;-82
2022/06/12 05:45:08;;;;;;;8.80;5.97;;;17.30;1.00;;;;;;5033088;28;20431;-82
2022/06/12 05:47:34;;;;;;;8.03;6.40;;;17.50;1.00;;;;;;5034367;28;20916;-82
2022/06/12 05:49:59;;;;;;;7.30;6.40;;;17.60;99.90;;;;;;5046094;28;20452;-82
2022/06/12 05:52:25;;;;;;;9.20;6.00;;;17.80;99.90;;;;;;5033313;28;20395;-81
2022/06/12 05:54:51;;;;;;;7.77;5.83;;;17.90;99.90;;;;;;5033365;28;20264;-83
2022/06/12 05:57:17;;;;;;;6.90;6.20;;;18.00;99.90;;;;;;5034038;28;20174;-83
2022/06/12 05:59:42;;;;;;;7.27;6.10;;;18.20;99.90;;;;;;5034824;28;20181;-84
2022/06/12 06:02:08;;;;;;;10.53;6.57;;;18.30;99.90;;;;;;5034178;28;20780;-84
2022/06/12 06:04:34;;;;;;;8.47;6.63;;;18.50;99.90;;;;;;5033527;28;20185;-84
2022/06/12 06:07:00;;;;;;;9.00;6.23;;;18.60;99.90;;;;;;5033241;28;20182;-84
2022/06/12 06:09:28;;;;;;;8.40;6.60;;;18.70;99.90;;;;;;5034545;28;20470;-84
2022/06/12 06:11:54;;;;;;;6.27;5.30;;;18.80;99.90;;;;;;5039445;28;20182;-81
2022/06/12 06:14:21;;;;;;;6.20;5.40;;;19.00;99.90;;;;;;5052541;28;20447;-81
2022/06/12 06:16:47;;;;;;;13.10;5.97;;;19.20;99.90;;;;;;5040017;28;20436;-81
2022/06/12 06:19:14;;;;;;;6.17;5.00;;;19.30;99.90;;;;;;5038586;28;20581;-81
2022/06/12 06:21:40;;;;;;;11.53;5.40;;;19.50;99.90;;;;;;5033432;28;20881;-81
2022/06/12 06:24:07;;;;;;;13.00;5.20;;;19.60;99.90;;;;;;5033621;28;20402;-78
2022/06/12 06:26:33;;;;;;;7.10;4.83;;;19.80;99.90;;;;;;5033376;28;20415;-78
2022/06/12 06:28:59;;;;;;;6.13;4.70;;;19.90;99.90;;;;;;5032299;28;20820;-79
2022/06/12 06:31:26;;;;;;;9.03;4.73;;;20.00;99.90;;;;;;5044665;28;20184;-82
2022/06/12 06:33:59;;;;;;;6.67;4.43;;;20.20;99.90;;;;;;5033444;28;20885;-82
2022/06/12 06:36:24;;;;;;;6.10;4.47;;;20.40;99.90;;;;;;5036385;28;20422;-82
2022/06/12 06:39:22;;;;;;;8.57;4.73;;;20.50;99.90;;;;;;5033847;28;20404;-82
2022/06/12 06:41:48;;;;;;;9.87;4.80;;;20.70;99.90;;;;;;5046624;28;20442;-87
2022/06/12 06:48:04;;;;;;;7.60;4.13;;;21.00;99.90;;;;;;5047501;28;20219;-86
2022/06/12 06:51:10;;;;;;;6.87;4.43;;;21.20;99.90;;;;;;5042023;28;20431;-86
2022/06/12 06:54:29;;;;;;;8.20;4.60;;;21.30;99.90;;;;;;5035963;28;20585;-85
2022/06/12 06:57:11;;;;;;;10.83;4.03;;;21.50;99.90;;;;;;5038121;28;20448;-86
2022/06/12 06:59:58;;;;;;;4.40;3.73;;;21.70;99.90;;;;;;5053165;28;20389;-86
2022/06/12 07:02:29;;;;;;;7.83;4.13;;;21.80;99.90;;;;;;5030726;28;20425;-86
2022/06/12 07:05:29;;;;;;;6.67;3.70;;;22.00;99.90;;;;;;5036594;28;20518;-85
2022/06/12 07:08:05;;;;;;;9.20;3.47;;;22.20;99.90;;;;;;5033719;28;20435;-86
2022/06/12 07:10:36;;;;;;;7.03;4.07;;;22.40;99.90;;;;;;5043657;28;20419;-82
2022/06/12 07:13:11;;;;;;;4.77;3.57;;;22.50;99.90;;;;;;5034271;28;20439;-81
2022/06/12 07:15:47;;;;;;;4.97;3.70;;;22.60;99.90;;;;;;5053514;28;20913;-81
2022/06/12 07:18:13;;;;;;;4.93;3.27;;;22.70;99.90;;;;;;5033731;28;20427;-81
2022/06/12 07:20:47;;;;;;;7.60;3.37;;;22.90;99.90;;;;;;5033077;28;20475;-82
2022/06/12 07:23:14;;;;;;;10.53;4.33;;;23.00;99.90;;;;;;5051772;28;20443;-82
2022/06/12 07:25:43;;;;;;;5.37;3.53;;;23.20;99.90;;;;;;5035299;28;20462;-82
2022/06/12 07:28:10;;;;;;;4.70;3.20;;;23.20;99.90;;;;;;5036210;28;20411;-83
2022/06/12 07:30:36;;;;;;;7.50;3.20;;;23.50;99.90;;;;;;5032608;28;20431;-83
2022/06/12 07:33:02;;;;;;;4.90;3.43;;;23.60;99.90;;;;;;5044958;28;20411;-82
2022/06/12 07:35:29;;;;;;;3.93;3.23;;;23.60;99.90;;;;;;5035669;28;20192;-83
2022/06/12 07:37:55;;;;;;;3.90;2.63;;;23.70;99.90;;;;;;5046540;28;20426;-83
2022/06/12 07:40:28;;;;;;;6.23;2.80;;;23.70;99.90;;;;;;5046257;28;20420;-83
2022/06/12 07:42:54;;;;;;;4.27;2.63;;;23.80;99.90;;;;;;5023984;28;20522;-89
2022/06/12 07:45:19;;;;;;;8.60;3.20;;;23.90;99.90;;;;;;5032285;28;20881;-88
2022/06/12 07:47:46;;;;;;;5.17;2.77;;;24.00;99.90;;;;;;5037158;28;20429;-88
2022/06/12 07:50:22;;;;;;;5.93;2.70;;;24.00;99.90;;;;;;5024961;28;20494;-89
2022/06/12 07:52:48;;;;;;;7.67;2.60;;;24.10;99.90;;;;;;5032524;28;20412;-88
2022/06/12 07:56:04;;;;;;;6.10;2.60;;;24.20;99.90;;;;;;5032583;28;20513;-89
2022/06/12 07:58:30;;;;;;;5.40;2.73;;;24.30;99.90;;;;;;5032884;28;20376;-89
2022/06/12 08:00:59;;;;;;;5.40;2.47;;;24.50;99.90;;;;;;5032453;28;20535;-89
2022/06/12 08:03:46;;;;;;;6.23;2.33;;;24.60;99.90;;;;;;5032360;28;20216;-90
2022/06/12 08:06:32;;;;;;;3.90;2.50;;;24.70;99.90;;;;;;5032781;28;20422;-90
2022/06/12 08:09:07;;;;;;;5.83;2.73;;;24.70;99.90;;;;;;5024814;28;20496;-90
2022/06/12 08:11:52;;;;;;;6.80;2.70;;;24.90;99.90;;;;;;5039271;28;20467;-82
2022/06/12 08:14:29;;;;;;;5.40;2.90;;;25.10;99.90;;;;;;5044183;28;20415;-83
2022/06/12 08:17:05;;;;;;;11.30;2.87;;;25.20;99.90;;;;;;5035818;28;20410;-84
2022/06/12 08:22:16;;;;;;;10.27;2.90;;;25.40;99.90;;;;;;5038848;28;20411;-84
2022/06/12 08:24:42;;;;;;;5.10;2.90;;;25.50;99.90;;;;;;5054659;28;20924;-84
2022/06/12 08:27:08;;;;;;;5.93;2.77;;;25.50;99.90;;;;;;5055717;28;20910;-88
2022/06/12 08:29:34;;;;;;;9.63;2.97;;;25.70;99.90;;;;;;5054691;28;20459;-88
2022/06/12 08:32:04;;;;;;;8.17;2.90;;;25.60;99.90;;;;;;5046174;28;20427;-88
2022/06/12 08:34:41;;;;;;;7.37;2.90;;;25.80;99.90;;;;;;5040014;28;20417;-88
2022/06/12 08:37:11;;;;;;;6.93;3.10;;;26.00;99.90;;;;;;5056074;28;20493;-87
2022/06/12 08:39:37;;;;;;;11.27;2.77;;;26.20;99.90;;;;;;5038907;28;20621;-85
2022/06/12 08:42:16;;;;;;;4.20;2.70;;;26.30;99.90;;;;;;5031053;28;20488;-85
2022/06/12 08:45:14;;;;;;;5.43;2.80;;;26.40;99.90;;;;;;5043757;28;20428;-85
2022/06/12 08:51:41;;;;;;;90.97;5.63;;;26.50;99.90;;;;;;5037726;28;20515;-84
2022/06/12 08:54:46;;;;;;;4.37;2.70;;;26.20;99.90;;;;;;5046698;28;20430;-85
2022/06/12 08:57:26;;;;;;;5.63;2.40;;;26.20;99.90;;;;;;5050092;28;20417;-85
2022/06/12 08:59:59;;;;;;;7.77;2.43;;;26.10;99.90;;;;;;5040609;28;20429;-86
2022/06/12 09:02:29;;;;;;;6.07;2.43;;;26.20;99.90;;;;;;5044658;28;20408;-86
2022/06/12 09:04:55;;;;;;;7.90;2.10;;;26.30;99.90;;;;;;5054413;28;20416;-86
2022/06/12 09:07:49;;;;;;;4.83;2.17;;;26.40;99.90;;;;;;5039282;28;20435;-86
2022/06/12 09:10:37;;;;;;;9.37;2.20;;;26.60;99.90;;;;;;5050844;28;20220;-87
2022/06/12 09:13:12;;;;;;;4.77;2.93;;;26.60;99.90;;;;;;5049434;28;20420;-88
2022/06/12 09:15:51;;;;;;;5.20;2.60;;;26.60;99.90;;;;;;5034418;28;20439;-88
2022/06/12 09:18:26;;;;;;;5.97;2.30;;;26.70;99.90;;;;;;5044563;28;20948;-87
2022/06/12 09:21:10;;;;;;;10.17;2.67;;;26.60;99.90;;;;;;5047884;28;20421;-87
2022/06/12 09:24:03;;;;;;;10.53;2.30;;;26.60;99.90;;;;;;5043768;28;20778;-87
2022/06/12 09:26:43;;;;;;;3.20;2.27;;;26.60;99.90;;;;;;5038297;28;20554;-84
2022/06/12 09:29:12;;;;;;;6.10;2.30;;;26.80;99.90;;;;;;5037982;28;20536;-87
2022/06/12 09:31:51;;;;;;;4.10;2.13;;;26.80;99.90;;;;;;5055368;28;20418;-87
2022/06/12 09:34:28;;;;;;;9.03;2.40;;;26.70;99.90;;;;;;5043191;28;20777;-87
2022/06/12 09:36:57;;;;;;;5.63;2.30;;;26.50;99.90;;;;;;5034795;28;20427;-87
2022/06/12 09:39:32;;;;;;;7.13;2.33;;;26.70;99.90;;;;;;5055049;28;20416;-87
2022/06/12 09:42:22;;;;;;;5.20;2.20;;;26.60;99.90;;;;;;5052207;28;20792;-86
2022/06/12 09:44:52;;;;;;;3.00;1.97;;;26.70;99.90;;;;;;5042586;28;20430;-86
2022/06/12 09:47:45;;;;;;;4.20;2.17;;;26.80;99.90;;;;;;5033890;28;20428;-87
2022/06/12 09:50:25;;;;;;;4.60;2.03;;;27.00;99.90;;;;;;5051247;28;20496;-86
2022/06/12 09:53:34;;;;;;;5.83;2.40;;;27.10;99.90;;;;;;5027965;28;20420;-87
2022/06/12 09:56:12;;;;;;;2.80;1.87;;;27.20;99.90;;;;;;5033976;28;20423;-86
2022/06/12 09:58:43;;;;;;;7.23;2.30;;;27.10;99.90;;;;;;5054619;28;20422;-84
2022/06/12 10:01:21;;;;;;;8.93;2.00;;;27.00;99.90;;;;;;5053037;28;20513;-84
2022/06/12 10:04:06;;;;;;;5.43;1.97;;;27.00;99.90;;;;;;5053059;28;20428;-84
2022/06/12 10:06:44;;;;;;;2.83;1.90;;;27.20;99.90;;;;;;5054321;28;20420;-85
2022/06/12 10:09:19;;;;;;;7.73;2.40;;;27.30;99.90;;;;;;5053181;28;20498;-84
2022/06/12 10:11:50;;;;;;;4.03;2.20;;;27.60;99.90;;;;;;5053606;28;20465;-86
2022/06/12 10:14:28;;;;;;;5.53;2.27;;;27.50;99.90;;;;;;5053552;28;20420;-85
2022/06/12 10:17:02;;;;;;;2.60;1.90;;;27.70;99.90;;;;;;5054138;28;20412;-85
2022/06/12 10:19:35;;;;;;;3.53;1.97;;;27.70;99.90;;;;;;5052463;28;20444;-85
2022/06/12 10:22:09;;;;;;;9.13;2.13;;;27.50;99.90;;;;;;5054212;28;20436;-85
2022/06/12 10:24:35;;;;;;;3.03;1.80;;;27.70;99.90;;;;;;5053651;28;20501;-84
2022/06/12 10:27:07;;;;;;;5.80;2.30;;;28.00;99.90;;;;;;5053919;28;20513;-85
2022/06/12 10:30:03;;;;;;;2.93;1.73;;;28.40;99.90;;;;;;5052966;28;20195;-85
2022/06/12 10:32:52;;;;;;;3.60;1.87;;;28.70;99.90;;;;;;5051706;28;20432;-85
2022/06/12 10:35:20;;;;;;;4.00;2.03;;;28.50;99.90;;;;;;5052529;28;20425;-85
2022/06/12 10:37:47;;;;;;;4.67;2.00;;;28.50;99.90;;;;;;5050644;28;20422;-85
2022/06/12 10:40:14;;;;;;;6.00;2.03;;;28.30;99.90;;;;;;5036494;28;20443;-85
2022/06/12 10:42:42;;;;;;;4.57;2.40;;;28.10;99.90;;;;;;5039802;28;20917;-84
2022/06/12 10:45:39;;;;;;;3.17;1.90;;;28.10;99.90;;;;;;5052466;28;20781;-85
2022/06/12 10:48:26;;;;;;;9.77;2.20;;;28.30;99.90;;;;;;5031636;28;20425;-85
2022/06/12 10:50:58;;;;;;;6.53;2.50;;;28.50;99.90;;;;;;5031872;28;20425;-87
2022/06/12 10:53:26;;;;;;;2.73;2.10;;;29.00;99.90;;;;;;5001564;28;20512;-87
2022/06/12 10:56:13;;;;;;;7.43;2.33;;;29.00;99.90;;;;;;5015085;28;20481;-86
2022/06/12 10:59:09;;;;;;;10.03;2.47;;;29.00;99.90;;;;;;5015533;28;20455;-90
2022/06/12 11:01:44;;;;;;;18.67;3.27;;;28.80;99.90;;;;;;5011999;28;20427;-87
2022/06/12 11:04:34;;;;;;;7.20;2.27;;;28.70;99.90;;;;;;5005196;28;20526;-85
2022/06/12 11:07:11;;;;;;;3.50;1.57;;;28.90;99.90;;;;;;4995344;28;20446;-86
2022/06/12 11:10:03;;;;;;;4.00;2.30;;;29.00;99.90;;;;;;4995130;28;20473;-86
2022/06/12 11:12:57;;;;;;;9.10;2.10;;;29.00;99.90;;;;;;5011976;28;20461;-83
2022/06/12 11:15:47;;;;;;;2.40;1.90;;;28.90;99.90;;;;;;4952411;29;20425;-81
2022/06/12 11:18:25;;;;;;;6.20;2.10;;;28.90;99.90;;;;;;4952405;29;20441;-81
2022/06/12 11:21:28;;;;;;;2.90;2.17;;;29.00;99.90;;;;;;4952057;29;20520;-79
2022/06/12 11:24:12;;;;;;;7.10;1.80;;;29.00;99.90;;;;;;4952437;29;20421;-80
2022/06/12 11:26:55;;;;;;;3.00;1.77;;;29.10;99.90;;;;;;4947022;28;20441;-82
2022/06/12 11:29:29;;;;;;;3.73;1.93;;;29.30;99.90;;;;;;4972182;28;20464;-84
2022/06/12 11:32:18;;;;;;;15.70;2.03;;;28.90;99.90;;;;;;4972524;28;20416;-88
2022/06/12 11:34:49;;;;;;;4.57;1.93;;;29.00;99.90;;;;;;4928459;28;20444;-84
2022/06/12 11:37:34;;;;;;;7.70;2.00;;;29.20;99.90;;;;;;4949853;28;20440;-83
2022/06/12 11:40:08;;;;;;;3.17;2.30;;;29.40;99.90;;;;;;4938310;28;20458;-84
2022/06/12 11:43:06;;;;;;;3.43;2.10;;;29.60;99.90;;;;;;4935490;29;20433;-87
2022/06/12 11:45:47;;;;;;;2.57;1.87;;;29.20;99.90;;;;;;4936203;29;20441;-84
2022/06/12 11:48:56;;;;;;;4.73;2.07;;;29.00;99.90;;;;;;4956409;29;20424;-84
2022/06/12 11:51:39;;;;;;;3.50;1.80;;;29.30;99.90;;;;;;4935487;28;20878;-86
2022/06/12 11:54:46;;;;;;;3.83;1.53;;;29.50;99.90;;;;;;4983086;28;20423;-86
2022/06/12 11:57:38;;;;;;;3.23;2.00;;;29.40;99.90;;;;;;4995399;28;20412;-88
2022/06/12 12:00:17;;;;;;;3.07;1.70;;;29.40;99.90;;;;;;4987663;28;20419;-79
2022/06/12 12:03:08;;;;;;;2.47;1.80;;;29.20;99.90;;;;;;4994461;28;20418;-80
2022/06/12 12:05:57;;;;;;;2.77;1.43;;;29.10;99.90;;;;;;4994475;28;20426;-79
2022/06/12 12:08:44;;;;;;;5.13;1.80;;;29.30;99.90;;;;;;4986848;28;20440;-79
2022/06/12 12:11:35;;;;;;;6.73;2.13;;;29.20;99.90;;;;;;4974831;28;20487;-79
2022/06/12 12:14:05;;;;;;;3.30;1.80;;;29.00;99.90;;;;;;4976305;28;20511;-87
2022/06/12 12:16:45;;;;;;;6.17;1.90;;;28.70;99.90;;;;;;4977677;28;20805;-86
2022/06/12 12:19:19;;;;;;;1.50;1.40;;;28.70;99.90;;;;;;4974814;28;20446;-80
2022/06/12 12:22:10;;;;;;;2.20;1.47;;;28.90;99.90;;;;;;4983615;28;20428;-89
2022/06/12 12:24:42;;;;;;;4.20;1.60;;;29.00;99.90;;;;;;5056220;28;20417;-91
2022/06/12 12:30:40;;;;;;;6.40;1.83;;;29.50;99.90;;;;;;5031409;28;20460;-82
2022/06/12 12:33:16;;;;;;;9.70;2.10;;;29.70;99.90;;;;;;5027631;28;20982;-81
2022/06/12 12:42:42;;;;;;;3.60;1.60;;;29.70;99.90;;;;;;5034827;28;20426;-83
2022/06/12 12:45:23;;;;;;;5.33;1.80;;;29.40;99.90;;;;;;5022218;28;20585;-80
2022/06/12 12:48:18;;;;;;;4.60;1.87;;;29.50;99.90;;;;;;5011234;28;20428;-80
2022/06/12 12:50:54;;;;;;;2.10;1.50;;;29.70;99.90;;;;;;4981367;28;20432;-82
2022/06/12 12:53:36;;;;;;;1.67;1.57;;;30.00;99.90;;;;;;4993839;28;20435;-82
2022/06/12 12:56:28;;;;;;;6.57;1.37;;;30.10;99.90;;;;;;4989970;28;20976;-79
2022/06/12 12:58:55;;;;;;;8.63;1.90;;;30.20;99.90;;;;;;4975107;28;20414;-82
2022/06/12 13:01:26;;;;;;;58.47;3.13;;;30.20;99.90;;;;;;4974966;28;20961;-80
2022/06/12 13:04:10;;;;;;;4.07;1.97;;;30.10;99.90;;;;;;4994192;28;20417;-81
2022/06/12 13:13:58;;;;;;;5.10;1.60;;;30.10;99.90;;;;;;4994046;28;20460;-85
2022/06/12 13:16:47;;;;;;;3.53;1.57;;;30.30;99.90;;;;;;4983917;28;20847;-80
2022/06/12 13:19:42;;;;;;;3.43;1.30;;;30.40;99.90;;;;;;4985261;28;20649;-82
2022/06/12 13:22:34;;;;;;;5.47;1.40;;;30.30;99.90;;;;;;5006028;28;20482;-77
2022/06/12 13:25:15;;;;;;;123.10;4.30;;;30.30;99.90;;;;;;4979685;28;20534;-78
2022/06/12 13:27:57;;;;;;;7.40;1.53;;;30.50;99.90;;;;;;5026116;28;20446;-78
2022/06/12 13:30:29;;;;;;;3.17;1.37;;;30.50;99.90;;;;;;5036915;28;20934;-78
2022/06/12 13:33:17;;;;;;;2.73;1.40;;;30.60;99.90;;;;;;5039064;28;20955;-79
2022/06/12 13:35:50;;;;;;;1.77;1.10;;;30.70;99.90;;;;;;5038148;28;20407;-79
2022/06/12 13:38:49;;;;;;;2.27;1.60;;;30.80;99.90;;;;;;5038082;28;20418;-79
2022/06/12 13:41:37;;;;;;;3.53;1.70;;;30.90;99.90;;;;;;5039388;28;20433;-90
2022/06/12 13:44:28;;;;;;;1.70;1.30;;;30.90;99.90;;;;;;5050145;28;20442;-78
2022/06/12 13:46:55;;;;;;;9.73;1.60;;;30.90;99.90;;;;;;5053510;28;20501;-80
2022/06/12 13:49:44;;;;;;;2.03;1.40;;;30.90;99.90;;;;;;5034522;28;21186;-79
2022/06/12 13:52:30;;;;;;;7.13;1.47;;;30.70;99.90;;;;;;5034823;28;20506;-78
2022/06/12 13:55:33;;;;;;;4.40;1.20;;;30.70;99.90;;;;;;5035627;28;20410;-86
2022/06/12 13:58:08;;;;;;;3.67;1.40;;;30.70;99.90;;;;;;5016134;28;20435;-83
2022/06/12 14:00:45;;;;;;;2.53;1.40;;;30.70;99.90;;;;;;5019926;28;20898;-85
2022/06/12 14:03:46;;;;;;;3.37;1.40;;;30.70;99.90;;;;;;5017979;28;20428;-84
2022/06/12 14:06:37;;;;;;;9.70;1.90;;;30.70;99.90;;;;;;4954677;29;20454;-85
2022/06/12 14:12:26;;;;;;;1.83;1.20;;;30.90;99.90;;;;;;4952947;29;20402;-81
2022/06/12 14:14:59;;;;;;;9.63;1.60;;;31.00;99.90;;;;;;4967479;28;20469;-80